createdAt,value
2023-04-17T00:01:55.698Z,3.07
2023-04-17T00:04:23.485Z,4.27
2023-04-17T00:06:53.987Z,3.33
2023-04-17T00:09:21.495Z,3.00
2023-04-17T00:11:49.167Z,3.63
2023-04-17T00:14:16.652Z,4.53
2023-04-17T00:16:44.286Z,5.07
2023-04-17T00:19:12.075Z,3.40
2023-04-17T00:21:39.719Z,3.77
2023-04-17T00:24:07.286Z,4.83
2023-04-17T00:26:34.758Z,3.27
2023-04-17T00:29:02.701Z,3.70
2023-04-17T00:31:30.309Z,5.47
2023-04-17T00:33:59.142Z,3.83
2023-04-17T00:36:27.401Z,3.07
2023-04-17T00:38:54.792Z,3.53
2023-04-17T00:41:22.166Z,4.73
2023-04-17T00:43:49.665Z,3.80
2023-04-17T00:46:17.225Z,5.70
2023-04-17T00:48:44.807Z,4.67
2023-04-17T00:51:12.284Z,4.73
2023-04-17T00:53:40.106Z,3.33
2023-04-17T00:56:07.903Z,4.13
2023-04-17T00:58:36.862Z,4.47
2023-04-17T01:01:06.158Z,3.77
2023-04-17T01:03:33.940Z,5.33
2023-04-17T01:06:02.280Z,6.37
2023-04-17T01:08:30.553Z,3.37
2023-04-17T01:10:57.929Z,3.90
2023-04-17T01:13:26.209Z,2.87
2023-04-17T01:15:53.690Z,4.67
2023-04-17T01:18:21.294Z,4.07
2023-04-17T01:20:48.789Z,4.17
2023-04-17T01:23:16.688Z,4.10
2023-04-17T01:25:44.231Z,5.37
2023-04-17T01:28:11.523Z,6.10
2023-04-17T01:30:38.936Z,4.43
2023-04-17T01:33:06.667Z,6.13
2023-04-17T01:35:34.127Z,4.73
2023-04-17T01:38:01.546Z,4.83
2023-04-17T01:40:28.983Z,5.27
2023-04-17T01:42:56.403Z,4.57
2023-04-17T01:45:23.791Z,6.27
2023-04-17T01:47:51.263Z,3.90
2023-04-17T01:50:18.765Z,4.27
2023-04-17T01:52:46.435Z,4.07
2023-04-17T01:55:14.104Z,4.00
2023-04-17T01:57:42.430Z,3.70
2023-04-17T02:00:10.907Z,4.90
2023-04-17T02:02:38.398Z,4.37
2023-04-17T02:05:06.690Z,4.13
2023-04-17T02:07:34.030Z,3.70
2023-04-17T02:10:01.399Z,7.57
2023-04-17T02:12:28.784Z,4.73
2023-04-17T02:15:01.253Z,4.30
2023-04-17T02:17:28.805Z,4.90
2023-04-17T02:19:56.835Z,4.37
2023-04-17T02:22:24.162Z,3.87
2023-04-17T02:24:51.531Z,4.33
2023-04-17T02:27:18.921Z,4.23
2023-04-17T02:29:46.242Z,3.80
2023-04-17T02:32:15.842Z,5.07
2023-04-17T02:34:43.217Z,3.67
2023-04-17T02:37:10.864Z,5.10
2023-04-17T02:39:38.784Z,6.70
2023-04-17T02:42:06.175Z,4.67
2023-04-17T02:44:33.661Z,5.33
2023-04-17T02:47:01.034Z,7.17
2023-04-17T02:49:28.451Z,4.33
2023-04-17T02:51:55.969Z,6.67
2023-04-17T02:54:23.349Z,6.10
2023-04-17T02:56:51.483Z,5.10
2023-04-17T02:59:18.886Z,5.83
2023-04-17T03:01:46.253Z,7.87
2023-04-17T03:04:13.713Z,3.93
2023-04-17T03:06:41.432Z,5.10
2023-04-17T03:09:08.870Z,5.77
2023-04-17T03:11:36.252Z,4.13
2023-04-17T03:14:03.613Z,6.27
2023-04-17T03:16:31.300Z,5.00
2023-04-17T03:18:58.680Z,4.30
2023-04-17T03:21:26.872Z,5.27
2023-04-17T03:23:54.317Z,5.87
2023-04-17T03:26:22.140Z,5.87
2023-04-17T03:28:49.566Z,4.23
2023-04-17T03:31:17.002Z,5.20
2023-04-17T03:33:44.376Z,5.63
2023-04-17T03:36:11.904Z,5.87
2023-04-17T03:38:39.371Z,5.93
2023-04-17T03:41:06.866Z,4.60
2023-04-17T03:43:34.290Z,5.73
2023-04-17T03:46:02.203Z,5.63
2023-04-17T03:48:29.571Z,4.77
2023-04-17T03:50:57.117Z,4.67
2023-04-17T03:53:24.534Z,4.63
2023-04-17T03:55:52.021Z,4.93
2023-04-17T03:58:19.485Z,4.60
2023-04-17T04:00:48.565Z,5.43
2023-04-17T04:03:16.069Z,6.83
2023-04-17T04:05:43.725Z,5.40
2023-04-17T04:08:11.241Z,5.27
2023-04-17T04:10:38.522Z,5.13
2023-04-17T04:13:06.018Z,5.63
2023-04-17T04:15:33.321Z,5.80
2023-04-17T04:18:00.719Z,4.40
2023-04-17T04:20:28.208Z,5.20
2023-04-17T04:22:59.561Z,4.87
2023-04-17T04:25:27.105Z,6.90
2023-04-17T04:27:56.458Z,4.60
2023-04-17T04:30:26.670Z,6.93
2023-04-17T04:32:56.185Z,6.63
2023-04-17T04:35:30.283Z,6.03
2023-04-17T04:38:02.486Z,5.37
2023-04-17T04:40:36.187Z,6.87
2023-04-17T04:43:04.436Z,5.83
2023-04-17T04:45:31.812Z,5.13
2023-04-17T04:47:59.230Z,4.83
2023-04-17T04:50:27.420Z,4.47
2023-04-17T04:52:54.867Z,5.03
2023-04-17T04:55:22.317Z,7.30
2023-04-17T04:57:49.845Z,5.37
2023-04-17T05:00:18.319Z,5.60
2023-04-17T05:02:45.985Z,5.30
2023-04-17T05:05:13.368Z,6.33
2023-04-17T05:07:41.021Z,8.03
2023-04-17T05:10:08.881Z,5.57
2023-04-17T05:12:36.445Z,6.03
2023-04-17T05:15:03.896Z,5.87
2023-04-17T05:17:31.394Z,6.70
2023-04-17T05:19:58.884Z,6.03
2023-04-17T05:22:27.729Z,5.83
2023-04-17T05:24:55.172Z,6.37
2023-04-17T05:27:22.532Z,6.47
2023-04-17T05:29:49.930Z,5.23
2023-04-17T05:32:17.450Z,5.20
2023-04-17T05:34:44.815Z,7.43
2023-04-17T05:37:12.165Z,5.43
2023-04-17T05:39:39.663Z,6.83
2023-04-17T05:42:07.161Z,6.77
2023-04-17T05:44:34.569Z,6.83
2023-04-17T05:47:02.200Z,7.90
2023-04-17T05:49:30.257Z,6.97
2023-04-17T05:51:57.600Z,7.53
2023-04-17T05:54:24.966Z,7.50
2023-04-17T05:56:53.203Z,8.77
2023-04-17T05:59:21.270Z,9.43
2023-04-17T06:01:49.152Z,11.10
2023-04-17T06:04:18.211Z,7.87
2023-04-17T06:06:46.204Z,9.10
2023-04-17T06:09:13.754Z,10.87
2023-04-17T06:11:41.490Z,8.87
2023-04-17T06:14:08.848Z,11.30
2023-04-17T06:16:36.229Z,8.47
2023-04-17T06:19:03.582Z,8.63
2023-04-17T06:21:32.206Z,7.80
2023-04-17T06:23:59.578Z,8.20
2023-04-17T06:26:26.938Z,7.80
2023-04-17T06:28:55.049Z,9.00
2023-04-17T06:31:22.424Z,7.83
2023-04-17T06:33:51.008Z,9.40
2023-04-17T06:36:18.373Z,6.73
2023-04-17T06:38:45.769Z,5.57
2023-04-17T06:41:14.500Z,4.97
2023-04-17T06:43:42.043Z,5.13
2023-04-17T06:46:09.437Z,5.03
2023-04-17T06:48:36.796Z,4.70
2023-04-17T06:51:04.284Z,7.70
2023-04-17T06:53:31.652Z,7.03
2023-04-17T06:55:59.165Z,6.30
2023-04-17T06:58:26.644Z,5.50
2023-04-17T07:00:54.048Z,5.73
2023-04-17T07:03:21.828Z,6.23
2023-04-17T07:05:50.767Z,6.10
2023-04-17T07:08:22.576Z,7.17
2023-04-17T07:10:50.281Z,5.53
2023-04-17T07:13:17.721Z,8.00
2023-04-17T07:15:45.331Z,4.97
2023-04-17T07:18:12.760Z,4.77
2023-04-17T07:20:40.123Z,4.97
2023-04-17T07:23:07.449Z,4.93
2023-04-17T07:25:34.884Z,5.17
2023-04-17T07:28:03.944Z,4.80
2023-04-17T07:30:31.889Z,5.23
2023-04-17T07:32:59.374Z,5.07
2023-04-17T07:35:26.724Z,4.37
2023-04-17T07:37:56.121Z,3.37
2023-04-17T07:40:23.585Z,5.43
2023-04-17T07:42:51.119Z,4.47
2023-04-17T07:45:18.506Z,4.00
2023-04-17T07:47:46.021Z,4.70
2023-04-17T07:50:13.508Z,5.70
2023-04-17T07:52:41.002Z,6.90
2023-04-17T07:55:08.691Z,5.00
2023-04-17T07:57:36.034Z,5.77
2023-04-17T08:00:05.241Z,4.80
2023-04-17T08:02:32.876Z,4.77
2023-04-17T08:05:01.839Z,5.47
2023-04-17T08:07:29.246Z,4.47
2023-04-17T08:09:56.560Z,4.00
2023-04-17T08:12:23.843Z,4.03
2023-04-17T08:14:51.284Z,3.73
2023-04-17T08:17:23.125Z,3.77
2023-04-17T08:19:53.600Z,6.67
2023-04-17T08:22:22.203Z,9.73
2023-04-17T08:24:49.720Z,3.33
2023-04-17T08:27:17.287Z,2.70
2023-04-17T08:29:44.849Z,1.80
2023-04-17T08:32:14.508Z,1.83
2023-04-17T08:34:43.361Z,4.00
2023-04-17T08:37:10.968Z,1.63
2023-04-17T08:39:38.456Z,1.43
2023-04-17T08:42:14.619Z,1.10
2023-04-17T08:44:45.891Z,1.33
2023-04-17T08:47:13.776Z,3.00
2023-04-17T08:49:43.942Z,2.00
2023-04-17T08:52:11.680Z,1.20
2023-04-17T08:54:39.672Z,1.20
2023-04-17T08:57:07.247Z,1.13
2023-04-17T08:59:34.651Z,0.77
2023-04-17T09:02:03.547Z,0.90
2023-04-17T09:04:44.279Z,1.10
2023-04-17T09:07:13.180Z,0.60
2023-04-17T09:10:10.006Z,2.13
2023-04-17T09:12:41.963Z,1.43
2023-04-17T09:15:18.604Z,1.20
2023-04-17T09:17:45.985Z,1.73
2023-04-17T09:20:13.750Z,1.50
2023-04-17T09:22:42.253Z,1.20
2023-04-17T09:25:19.239Z,0.73
2023-04-17T09:27:47.006Z,0.70
2023-04-17T09:30:14.738Z,0.60
2023-04-17T09:32:42.281Z,0.93
2023-04-17T09:35:09.755Z,0.80
2023-04-17T09:37:56.344Z,0.73
2023-04-17T09:40:25.473Z,0.80
2023-04-17T09:42:56.917Z,0.70
2023-04-17T09:45:25.120Z,0.90
2023-04-17T09:47:56.142Z,1.10
2023-04-17T09:50:27.268Z,0.77
2023-04-17T09:52:59.053Z,1.53
2023-04-17T09:55:30.300Z,0.77
2023-04-17T09:57:58.725Z,2.17
2023-04-17T10:00:27.897Z,2.10
2023-04-17T10:02:56.330Z,1.17
2023-04-17T10:05:25.017Z,0.40
2023-04-17T10:07:52.451Z,0.43
2023-04-17T10:10:24.173Z,1.50
2023-04-17T10:12:56.939Z,0.60
2023-04-17T10:15:25.648Z,2.07
2023-04-17T10:17:53.653Z,0.33
2023-04-17T10:20:24.401Z,0.40
2023-04-17T10:22:56.529Z,0.30
2023-04-17T10:25:28.079Z,0.30
2023-04-17T10:28:00.042Z,0.27
2023-04-17T10:30:46.528Z,0.33
2023-04-17T10:33:19.970Z,1.13
2023-04-17T10:35:47.644Z,0.20
2023-04-17T10:38:16.431Z,0.30
2023-04-17T10:40:45.226Z,0.20
2023-04-17T10:43:25.630Z,0.53
2023-04-17T10:46:02.335Z,0.20
2023-04-17T10:48:53.414Z,0.20
2023-04-17T10:51:23.997Z,0.30
2023-04-17T10:53:58.118Z,0.57
2023-04-17T10:56:25.522Z,0.20
2023-04-17T10:59:12.334Z,0.30
2023-04-17T11:01:40.811Z,0.40
2023-04-17T11:04:09.094Z,0.50
2023-04-17T11:06:40.642Z,0.20
2023-04-17T11:09:11.830Z,1.67
2023-04-17T11:11:44.072Z,0.27
2023-04-17T11:14:18.973Z,1.20
2023-04-17T11:16:47.630Z,0.20
2023-04-17T11:19:18.801Z,0.30
2023-04-17T11:21:46.605Z,0.20
2023-04-17T11:24:14.042Z,0.40
2023-04-17T11:26:44.814Z,0.40
2023-04-17T11:29:19.086Z,1.50
2023-04-17T11:31:47.619Z,0.10
2023-04-17T11:34:16.085Z,0.67
2023-04-17T11:36:50.496Z,0.90
2023-04-17T11:39:18.567Z,0.40
2023-04-17T11:41:46.719Z,0.33
2023-04-17T11:44:14.402Z,0.40
2023-04-17T11:46:41.931Z,0.40
2023-04-17T11:49:11.940Z,0.70
2023-04-17T11:51:39.573Z,0.40
2023-04-17T11:54:07.110Z,0.50
2023-04-17T11:56:34.404Z,0.57
2023-04-17T11:59:05.081Z,0.80
2023-04-17T12:01:32.492Z,0.40
2023-04-17T12:04:00.434Z,0.40
2023-04-17T12:06:37.900Z,0.40
2023-04-17T12:09:07.220Z,1.10
2023-04-17T12:11:34.668Z,0.20
2023-04-17T12:14:02.532Z,0.20
2023-04-17T12:16:30.898Z,0.40
2023-04-17T12:18:59.403Z,0.52
2023-04-17T12:21:27.010Z,0.35
2023-04-17T12:23:54.443Z,0.40
2023-04-17T12:26:22.135Z,0.30
2023-04-17T12:28:49.645Z,0.20
2023-04-17T12:31:17.179Z,0.13
2023-04-17T12:33:44.526Z,0.73
2023-04-17T12:36:12.002Z,1.63
2023-04-17T12:38:39.526Z,0.25
2023-04-17T12:41:07.009Z,0.35
2023-04-17T12:43:34.403Z,0.57
2023-04-17T12:46:02.401Z,0.28
2023-04-17T12:48:32.218Z,0.28
2023-04-17T12:51:00.424Z,0.30
2023-04-17T12:53:27.964Z,0.40
2023-04-17T12:55:55.404Z,0.98
2023-04-17T12:58:22.736Z,0.95
2023-04-17T13:00:50.351Z,0.30
2023-04-17T13:03:18.035Z,0.52
2023-04-17T13:05:45.701Z,0.30
2023-04-17T13:08:15.348Z,0.33
2023-04-17T13:10:43.261Z,1.02
2023-04-17T13:13:11.277Z,0.20
2023-04-17T13:15:38.715Z,0.20
2023-04-17T13:18:06.268Z,0.50
2023-04-17T13:20:33.807Z,0.27
2023-04-17T13:23:01.248Z,0.20
2023-04-17T13:25:30.806Z,0.23
2023-04-17T13:27:58.802Z,2.93
2023-04-17T13:30:26.517Z,0.30
2023-04-17T13:32:53.951Z,0.37
2023-04-17T13:35:21.442Z,0.30
2023-04-17T13:37:49.122Z,0.23
2023-04-17T13:40:17.457Z,0.30
2023-04-17T13:42:44.933Z,0.20
2023-04-17T13:45:12.640Z,0.33
2023-04-17T13:47:40.016Z,0.87
2023-04-17T13:50:07.939Z,1.40
2023-04-17T13:52:35.365Z,0.30
2023-04-17T13:55:02.690Z,0.30
2023-04-17T13:57:30.219Z,0.30
2023-04-17T13:59:57.643Z,0.30
2023-04-17T14:02:25.514Z,0.20
2023-04-17T14:04:53.390Z,1.27
2023-04-17T14:07:21.107Z,0.20
2023-04-17T14:09:48.509Z,0.57
2023-04-17T14:12:20.652Z,0.47
2023-04-17T14:14:48.153Z,0.30
2023-04-17T14:17:15.562Z,0.40
2023-04-17T14:19:42.922Z,0.50
2023-04-17T14:22:10.331Z,0.33
2023-04-17T14:24:37.730Z,1.53
2023-04-17T14:27:05.104Z,0.30
2023-04-17T14:29:32.492Z,0.30
2023-04-17T14:31:59.894Z,0.20
2023-04-17T14:34:27.887Z,0.52
2023-04-17T14:36:56.851Z,0.20
2023-04-17T14:39:25.458Z,0.10
2023-04-17T14:41:52.996Z,0.30
2023-04-17T14:44:21.333Z,1.95
2023-04-17T14:46:49.098Z,0.20
2023-04-17T14:49:16.614Z,0.30
2023-04-17T14:51:43.980Z,0.30
2023-04-17T14:54:11.416Z,0.30
2023-04-17T14:56:38.789Z,0.45
2023-04-17T14:59:06.173Z,0.22
2023-04-17T15:01:33.590Z,0.30
2023-04-17T15:04:01.132Z,0.30
2023-04-17T15:06:28.689Z,0.63
2023-04-17T15:08:57.163Z,0.30
2023-04-17T15:11:24.722Z,0.30
2023-04-17T15:13:52.203Z,0.22
2023-04-17T15:16:19.668Z,0.20
2023-04-17T15:18:47.089Z,0.20
2023-04-17T15:21:16.337Z,1.98
2023-04-17T15:23:43.724Z,0.30
2023-04-17T15:26:11.284Z,0.20
2023-04-17T15:28:38.797Z,0.35
2023-04-17T15:31:06.609Z,0.20
2023-04-17T15:33:34.566Z,1.27
2023-04-17T15:36:02.058Z,1.65
2023-04-17T15:38:29.524Z,0.17
2023-04-17T15:40:57.410Z,0.38
2023-04-17T15:43:24.825Z,0.20
2023-04-17T15:45:52.908Z,0.57
2023-04-17T15:48:20.400Z,0.20
2023-04-17T15:50:47.804Z,0.83
2023-04-17T15:53:15.219Z,0.47
2023-04-17T15:55:42.527Z,0.20
2023-04-17T15:58:09.890Z,0.30
2023-04-17T16:00:37.409Z,0.40
2023-04-17T16:03:07.666Z,0.20
2023-04-17T16:05:35.284Z,0.20
2023-04-17T16:08:02.800Z,0.67
2023-04-17T16:10:30.370Z,0.20
2023-04-17T16:12:58.164Z,0.30
2023-04-17T16:15:25.608Z,0.20
2023-04-17T16:17:53.051Z,0.40
2023-04-17T16:20:20.486Z,0.30
2023-04-17T16:22:47.814Z,0.30
2023-04-17T16:25:15.458Z,0.30
2023-04-17T16:27:42.842Z,0.20
2023-04-17T16:30:11.106Z,0.20
2023-04-17T16:32:38.598Z,0.30
2023-04-17T16:35:06.543Z,0.20
2023-04-17T16:37:33.963Z,0.10
2023-04-17T16:40:05.054Z,0.30
2023-04-17T16:42:33.524Z,0.20
2023-04-17T16:45:01.002Z,1.43
2023-04-17T16:47:31.571Z,0.20
2023-04-17T16:49:59.164Z,0.37
2023-04-17T16:52:26.615Z,0.30
2023-04-17T16:54:54.122Z,0.30
2023-04-17T16:57:21.727Z,0.30
2023-04-17T16:59:49.210Z,2.00
2023-04-17T17:02:16.780Z,0.30
2023-04-17T17:04:47.233Z,0.70
2023-04-17T17:07:14.778Z,1.47
2023-04-17T17:09:42.121Z,0.20
2023-04-17T17:12:10.281Z,1.23
2023-04-17T17:14:37.722Z,0.70
2023-04-17T17:17:05.087Z,0.43
2023-04-17T17:19:32.639Z,0.30
2023-04-17T17:22:00.128Z,0.40
2023-04-17T17:24:27.634Z,0.23
2023-04-17T17:26:55.045Z,0.70
2023-04-17T17:29:22.518Z,0.20
2023-04-17T17:31:49.873Z,1.30
2023-04-17T17:34:26.293Z,0.30
2023-04-17T17:36:54.615Z,0.30
2023-04-17T17:39:24.929Z,0.20
2023-04-17T17:41:52.638Z,1.37
2023-04-17T17:44:20.164Z,0.40
2023-04-17T17:46:47.622Z,0.40
2023-04-17T17:49:15.149Z,0.40
2023-04-17T17:51:42.922Z,0.37
2023-04-17T17:54:10.544Z,0.37
2023-04-17T17:56:38.331Z,0.30
2023-04-17T17:59:05.726Z,0.27
2023-04-17T18:01:33.433Z,2.20
2023-04-17T18:04:01.088Z,0.40
2023-04-17T18:06:28.934Z,0.40
2023-04-17T18:08:58.006Z,0.60
2023-04-17T18:11:25.722Z,0.70
2023-04-17T18:13:53.286Z,0.40
2023-04-17T18:16:21.008Z,0.57
2023-04-17T18:18:48.601Z,0.70
2023-04-17T18:21:15.961Z,0.30
2023-04-17T18:23:43.417Z,0.33
2023-04-17T18:26:11.214Z,0.30
2023-04-17T18:28:38.765Z,0.33
2023-04-17T18:31:06.254Z,0.30
2023-04-17T18:33:33.691Z,0.40
2023-04-17T18:36:01.252Z,0.40
2023-04-17T18:38:28.563Z,0.30
2023-04-17T18:40:57.577Z,0.70
2023-04-17T18:43:24.896Z,1.50
2023-04-17T18:45:52.262Z,0.87
2023-04-17T18:48:19.648Z,0.50
2023-04-17T18:50:47.139Z,0.30
2023-04-17T18:53:14.566Z,0.40
2023-04-17T18:55:42.004Z,0.30
2023-04-17T18:58:09.333Z,0.33
2023-04-17T19:00:37.772Z,0.50
2023-04-17T19:03:06.562Z,0.47
2023-04-17T19:05:34.144Z,0.40
2023-04-17T19:08:01.640Z,0.93
2023-04-17T19:10:30.292Z,0.40
2023-04-17T19:12:57.650Z,0.40
2023-04-17T19:15:25.126Z,0.40
2023-04-17T19:17:52.915Z,0.30
2023-04-17T19:20:22.803Z,0.30
2023-04-17T19:22:50.283Z,0.50
2023-04-17T19:25:17.652Z,0.40
2023-04-17T19:27:45.011Z,0.40
2023-04-17T19:30:12.649Z,0.40
2023-04-17T19:32:40.055Z,0.37
2023-04-17T19:35:07.849Z,0.37
2023-04-17T19:37:35.418Z,0.40
2023-04-17T19:40:08.568Z,0.40
2023-04-17T19:42:42.169Z,0.60
2023-04-17T19:45:10.799Z,0.40
2023-04-17T19:47:40.342Z,0.40
2023-04-17T19:50:10.170Z,0.43
2023-04-17T19:52:43.221Z,0.40
2023-04-17T19:55:10.805Z,0.40
2023-04-17T19:57:39.360Z,0.40
2023-04-17T20:00:07.688Z,0.43
2023-04-17T20:02:35.517Z,0.30
2023-04-17T20:05:03.371Z,0.40
2023-04-17T20:07:31.060Z,0.40
2023-04-17T20:09:58.379Z,0.40
2023-04-17T20:12:25.841Z,1.17
2023-04-17T20:14:53.201Z,0.73
2023-04-17T20:17:20.896Z,0.40
2023-04-17T20:19:48.443Z,0.40
2023-04-17T20:22:16.246Z,0.40
2023-04-17T20:24:43.704Z,0.50
2023-04-17T20:27:11.096Z,0.43
2023-04-17T20:29:38.513Z,0.50
2023-04-17T20:32:05.874Z,0.40
2023-04-17T20:34:35.294Z,0.57
2023-04-17T20:37:02.884Z,0.20
2023-04-17T20:39:30.324Z,0.63
2023-04-17T20:41:57.604Z,0.50
2023-04-17T20:44:25.065Z,0.30
2023-04-17T20:46:52.547Z,0.40
2023-04-17T20:49:19.921Z,1.10
2023-04-17T20:51:47.479Z,1.27
2023-04-17T20:54:15.062Z,1.03
2023-04-17T20:56:43.640Z,0.40
2023-04-17T20:59:11.408Z,0.40
2023-04-17T21:01:39.913Z,0.40
2023-04-17T21:04:07.495Z,3.20
2023-04-17T21:06:34.919Z,1.90
2023-04-17T21:09:02.363Z,0.40
2023-04-17T21:11:29.682Z,0.40
2023-04-17T21:13:59.040Z,0.63
2023-04-17T21:16:26.746Z,0.63
2023-04-17T21:18:54.168Z,0.60
2023-04-17T21:21:21.693Z,0.87
2023-04-17T21:23:49.082Z,0.40
2023-04-17T21:26:16.536Z,0.50
2023-04-17T21:28:44.124Z,0.53
2023-04-17T21:31:14.455Z,0.50
2023-04-17T21:33:41.969Z,0.30
2023-04-17T21:36:09.806Z,0.50
2023-04-17T21:38:37.243Z,0.43
2023-04-17T21:41:04.776Z,0.53
2023-04-17T21:43:32.163Z,0.40
2023-04-17T21:45:59.708Z,0.40
2023-04-17T21:48:27.172Z,0.30
2023-04-17T21:51:05.012Z,0.40
2023-04-17T21:53:34.092Z,0.87
2023-04-17T21:56:01.525Z,0.43
2023-04-17T21:58:28.921Z,0.30
2023-04-17T22:00:56.661Z,2.20
2023-04-17T22:03:24.199Z,0.40
2023-04-17T22:05:53.928Z,0.40
2023-04-17T22:08:21.289Z,1.20
2023-04-17T22:10:48.686Z,0.47
2023-04-17T22:13:16.262Z,1.50
2023-04-17T22:15:48.504Z,0.60
2023-04-17T22:18:16.128Z,1.23
2023-04-17T22:20:43.446Z,0.50
2023-04-17T22:23:10.946Z,0.40
2023-04-17T22:25:38.426Z,0.40
2023-04-17T22:28:05.889Z,0.50
2023-04-17T22:30:33.208Z,0.47
2023-04-17T22:33:00.687Z,0.30
2023-04-17T22:35:28.209Z,0.30
2023-04-17T22:37:55.696Z,0.30
2023-04-17T22:40:23.249Z,4.27
2023-04-17T22:42:51.457Z,0.40
2023-04-17T22:45:18.925Z,0.30
2023-04-17T22:47:46.326Z,0.30
2023-04-17T22:50:14.307Z,0.50
2023-04-17T22:52:41.903Z,0.80
2023-04-17T22:55:09.966Z,0.60
2023-04-17T22:57:37.468Z,1.83
2023-04-17T23:00:08.962Z,0.30
2023-04-17T23:02:37.134Z,0.83
2023-04-17T23:05:04.949Z,0.40
2023-04-17T23:07:32.622Z,0.40
2023-04-17T23:10:00.207Z,0.60
2023-04-17T23:12:27.524Z,0.50
2023-04-17T23:14:54.921Z,0.30
2023-04-17T23:17:22.299Z,0.40
2023-04-17T23:19:49.645Z,0.40
2023-04-17T23:22:17.003Z,0.40
2023-04-17T23:24:44.529Z,1.67
2023-04-17T23:27:12.281Z,0.30
2023-04-17T23:29:39.639Z,0.70
2023-04-17T23:32:07.804Z,0.40
2023-04-17T23:34:35.288Z,0.57
2023-04-17T23:37:02.976Z,0.37
2023-04-17T23:39:30.645Z,0.60
2023-04-17T23:41:59.083Z,0.50
2023-04-17T23:44:26.452Z,0.60
2023-04-17T23:46:53.932Z,0.30
2023-04-17T23:49:21.373Z,0.30
2023-04-17T23:51:48.731Z,0.50
2023-04-17T23:54:16.146Z,0.97
2023-04-17T23:56:43.736Z,0.67
2023-04-17T23:59:11.247Z,0.30
